sensor_id;sensor_type;location;lat;lon;timestamp;pressure;altitude;pressure_sealevel;temperature;humidity
68197;BME280;55019;49.382;11.358;2023-10-31T00:01:48;94915.81;;;10.86;100.00
68197;BME280;55019;49.382;11.358;2023-10-31T00:04:15;94912.22;;;10.87;100.00
68197;BME280;55019;49.382;11.358;2023-10-31T00:06:41;94913.22;;;10.86;100.00
68197;BME280;55019;49.382;11.358;2023-10-31T00:09:08;94922.38;;;10.82;100.00
68197;BME280;55019;49.382;11.358;2023-10-31T00:11:34;94919.84;;;10.75;100.00
68197;BME280;55019;49.382;11.358;2023-10-31T00:13:59;94918.63;;;10.78;100.00
68197;BME280;55019;49.382;11.358;2023-10-31T00:16:25;94923.38;;;10.81;100.00
68197;BME280;55019;49.382;11.358;2023-10-31T00:18:51;94921.44;;;10.76;100.00
68197;BME280;55019;49.382;11.358;2023-10-31T00:21:16;94923.38;;;10.81;100.00
68197;BME280;55019;49.382;11.358;2023-10-31T00:23:46;94925.00;;;10.75;100.00
68197;BME280;55019;49.382;11.358;2023-10-31T00:26:12;94927.97;;;10.79;100.00
68197;BME280;55019;49.382;11.358;2023-10-31T00:28:42;94931.13;;;10.81;100.00
68197;BME280;55019;49.382;11.358;2023-10-31T00:31:08;94936.91;;;10.83;100.00
68197;BME280;55019;49.382;11.358;2023-10-31T00:33:37;94945.22;;;10.85;100.00
68197;BME280;55019;49.382;11.358;2023-10-31T00:36:03;94936.66;;;10.91;100.00
68197;BME280;55019;49.382;11.358;2023-10-31T00:38:29;94935.31;;;10.88;100.00
68197;BME280;55019;49.382;11.358;2023-10-31T00:40:55;94934.91;;;10.85;100.00
68197;BME280;55019;49.382;11.358;2023-10-31T00:43:22;94944.03;;;10.87;100.00
68197;BME280;55019;49.382;11.358;2023-10-31T00:45:47;94943.25;;;10.87;100.00
68197;BME280;55019;49.382;11.358;2023-10-31T00:48:13;94944.25;;;10.86;100.00
68197;BME280;55019;49.382;11.358;2023-10-31T00:50:39;94947.41;;;10.88;100.00
68197;BME280;55019;49.382;11.358;2023-10-31T00:53:05;94951.16;;;10.92;100.00
68197;BME280;55019;49.382;11.358;2023-10-31T00:55:30;94957.56;;;10.89;100.00
68197;BME280;55019;49.382;11.358;2023-10-31T00:57:56;94962.13;;;10.87;100.00
68197;BME280;55019;49.382;11.358;2023-10-31T01:00:22;94954.16;;;10.95;100.00
68197;BME280;55019;49.382;11.358;2023-10-31T01:02:47;94967.09;;;10.89;100.00
68197;BME280;55019;49.382;11.358;2023-10-31T01:05:13;94966.91;;;10.90;100.00
68197;BME280;55019;49.382;11.358;2023-10-31T01:07:39;94968.09;;;10.88;100.00
68197;BME280;55019;49.382;11.358;2023-10-31T01:10:05;94973.47;;;10.86;100.00
68197;BME280;55019;49.382;11.358;2023-10-31T01:12:31;94972.06;;;10.90;100.00
68197;BME280;55019;49.382;11.358;2023-10-31T01:14:58;94975.81;;;10.94;100.00
68197;BME280;55019;49.382;11.358;2023-10-31T01:17:24;94978.59;;;10.93;100.00
68197;BME280;55019;49.382;11.358;2023-10-31T01:19:49;94977.00;;;10.92;100.00
68197;BME280;55019;49.382;11.358;2023-10-31T01:22:15;94980.19;;;10.94;100.00
68197;BME280;55019;49.382;11.358;2023-10-31T01:24:41;94990.97;;;10.84;100.00
68197;BME280;55019;49.382;11.358;2023-10-31T01:27:06;94985.97;;;10.83;100.00
68197;BME280;55019;49.382;11.358;2023-10-31T01:29:33;94987.56;;;10.84;100.00
68197;BME280;55019;49.382;11.358;2023-10-31T01:31:59;94986.56;;;10.85;100.00
68197;BME280;55019;49.382;11.358;2023-10-31T01:34:25;94975.06;;;10.87;100.00
68197;BME280;55019;49.382;11.358;2023-10-31T01:36:50;94981.00;;;10.88;100.00
68197;BME280;55019;49.382;11.358;2023-10-31T01:39:16;94982.00;;;10.87;100.00
68197;BME280;55019;49.382;11.358;2023-10-31T01:41:43;94966.31;;;10.88;100.00
68197;BME280;55019;49.382;11.358;2023-10-31T01:44:09;94968.47;;;10.91;100.00
68197;BME280;55019;49.382;11.358;2023-10-31T01:46:37;94972.25;;;10.89;100.00
68197;BME280;55019;49.382;11.358;2023-10-31T01:49:03;94971.09;;;10.78;100.00
68197;BME280;55019;49.382;11.358;2023-10-31T01:51:29;94971.88;;;10.79;100.00
68197;BME280;55019;49.382;11.358;2023-10-31T01:53:55;94973.47;;;10.86;100.00
68197;BME280;55019;49.382;11.358;2023-10-31T01:56:22;94977.84;;;10.79;100.00
68197;BME280;55019;49.382;11.358;2023-10-31T01:58:49;94983.63;;;10.75;100.00
68197;BME280;55019;49.382;11.358;2023-10-31T02:01:15;94997.91;;;10.84;100.00
68197;BME280;55019;49.382;11.358;2023-10-31T02:03:42;94993.34;;;10.73;100.00
68197;BME280;55019;49.382;11.358;2023-10-31T02:06:07;94994.34;;;10.72;100.00
68197;BME280;55019;49.382;11.358;2023-10-31T02:08:33;94995.75;;;10.68;100.00
68197;BME280;55019;49.382;11.358;2023-10-31T02:10:59;94990.59;;;10.68;100.00
68197;BME280;55019;49.382;11.358;2023-10-31T02:13:25;94985.22;;;10.76;100.00
68197;BME280;55019;49.382;11.358;2023-10-31T02:15:51;94990.59;;;10.74;100.00
68197;BME280;55019;49.382;11.358;2023-10-31T02:18:17;94991.00;;;10.65;100.00
68197;BME280;55019;49.382;11.358;2023-10-31T02:20:45;94987.59;;;10.64;100.00
68197;BME280;55019;49.382;11.358;2023-10-31T02:23:10;94981.47;;;10.59;100.00
68197;BME280;55019;49.382;11.358;2023-10-31T02:25:36;94994.38;;;10.59;100.00
68197;BME280;55019;49.382;11.358;2023-10-31T02:28:02;94995.34;;;10.71;100.00
68197;BME280;55019;49.382;11.358;2023-10-31T02:30:34;94996.75;;;10.67;100.00
68197;BME280;55019;49.382;11.358;2023-10-31T02:33:03;95003.31;;;10.63;100.00
68197;BME280;55019;49.382;11.358;2023-10-31T02:35:29;95020.78;;;10.74;100.00
68197;BME280;55019;49.382;11.358;2023-10-31T02:37:54;95020.78;;;10.74;100.00
68197;BME280;55019;49.382;11.358;2023-10-31T02:40:20;95034.91;;;10.58;100.00
68197;BME280;55019;49.382;11.358;2023-10-31T02:42:46;95029.56;;;10.47;100.00
68197;BME280;55019;49.382;11.358;2023-10-31T02:45:14;95033.50;;;10.49;100.00
68197;BME280;55019;49.382;11.358;2023-10-31T02:47:40;95045.63;;;10.42;100.00
68197;BME280;55019;49.382;11.358;2023-10-31T02:50:06;95062.69;;;10.37;100.00
68197;BME280;55019;49.382;11.358;2023-10-31T02:52:32;95067.28;;;10.35;100.00
68197;BME280;55019;49.382;11.358;2023-10-31T02:54:57;95060.31;;;10.29;100.00
68197;BME280;55019;49.382;11.358;2023-10-31T02:57:23;95072.41;;;10.22;100.00
68197;BME280;55019;49.382;11.358;2023-10-31T02:59:49;95069.81;;;10.09;100.00
68197;BME280;55019;49.382;11.358;2023-10-31T03:02:15;95079.13;;;10.03;100.00
68197;BME280;55019;49.382;11.358;2023-10-31T03:04:41;95085.72;;;10.06;100.00
68197;BME280;55019;49.382;11.358;2023-10-31T03:07:07;95082.31;;;10.05;100.00
68197;BME280;55019;49.382;11.358;2023-10-31T03:09:33;95076.09;;;9.94;100.00
68197;BME280;55019;49.382;11.358;2023-10-31T03:11:59;95088.38;;;9.85;100.00
68197;BME280;55019;49.382;11.358;2023-10-31T03:14:25;95082.06;;;9.88;100.00
68197;BME280;55019;49.382;11.358;2023-10-31T03:16:51;95083.78;;;9.74;100.00
68197;BME280;55019;49.382;11.358;2023-10-31T03:19:16;95073.44;;;9.68;100.00
68197;BME280;55019;49.382;11.358;2023-10-31T03:21:42;95067.72;;;9.72;100.00
68197;BME280;55019;49.382;11.358;2023-10-31T03:24:08;95087.97;;;9.75;100.00
68197;BME280;55019;49.382;11.358;2023-10-31T03:26:34;95085.81;;;9.79;100.00
68197;BME280;55019;49.382;11.358;2023-10-31T03:28:59;95078.81;;;9.66;100.00
68197;BME280;55019;49.382;11.358;2023-10-31T03:31:25;95092.34;;;9.75;100.00
68197;BME280;55019;49.382;11.358;2023-10-31T03:33:51;95095.69;;;9.75;100.00
68197;BME280;55019;49.382;11.358;2023-10-31T03:36:18;95095.66;;;9.69;100.00
68197;BME280;55019;49.382;11.358;2023-10-31T03:38:44;95098.63;;;9.59;100.00
68197;BME280;55019;49.382;11.358;2023-10-31T03:41:10;95098.41;;;9.61;100.00
68197;BME280;55019;49.382;11.358;2023-10-31T03:43:36;95097.97;;;9.51;100.00
68197;BME280;55019;49.382;11.358;2023-10-31T03:46:02;95100.00;;;9.55;100.00
68197;BME280;55019;49.382;11.358;2023-10-31T03:48:28;95109.91;;;9.58;100.00
68197;BME280;55019;49.382;11.358;2023-10-31T03:50:53;95106.75;;;9.63;100.00
68197;BME280;55019;49.382;11.358;2023-10-31T03:53:19;95115.50;;;9.68;100.00
68197;BME280;55019;49.382;11.358;2023-10-31T03:55:45;95115.84;;;9.59;100.00
68197;BME280;55019;49.382;11.358;2023-10-31T03:58:11;95124.41;;;9.59;100.00
68197;BME280;55019;49.382;11.358;2023-10-31T04:00:38;95118.97;;;9.48;100.00
68197;BME280;55019;49.382;11.358;2023-10-31T04:03:04;95114.84;;;9.53;100.00
68197;BME280;55019;49.382;11.358;2023-10-31T04:05:30;95109.00;;;9.38;100.00
68197;BME280;55019;49.382;11.358;2023-10-31T04:07:56;95122.50;;;9.34;100.00
68197;BME280;55019;49.382;11.358;2023-10-31T04:10:21;95116.69;;;9.25;100.00
68197;BME280;55019;49.382;11.358;2023-10-31T04:12:48;95124.84;;;9.35;100.00
68197;BME280;55019;49.382;11.358;2023-10-31T04:15:16;95125.47;;;9.37;100.00
68197;BME280;55019;49.382;11.358;2023-10-31T04:17:41;95118.81;;;9.15;100.00
68197;BME280;55019;49.382;11.358;2023-10-31T04:20:07;95114.22;;;9.11;100.00
68197;BME280;55019;49.382;11.358;2023-10-31T04:22:33;95128.31;;;9.15;100.00
68197;BME280;55019;49.382;11.358;2023-10-31T04:24:59;95123.06;;;9.02;100.00
68197;BME280;55019;49.382;11.358;2023-10-31T04:27:25;95123.50;;;9.05;100.00
68197;BME280;55019;49.382;11.358;2023-10-31T04:29:50;95133.75;;;8.99;100.00
68197;BME280;55019;49.382;11.358;2023-10-31T04:32:16;95144.00;;;8.92;100.00
68197;BME280;55019;49.382;11.358;2023-10-31T04:34:42;95147.56;;;8.91;100.00
68197;BME280;55019;49.382;11.358;2023-10-31T04:37:07;95147.00;;;8.96;100.00
68197;BME280;55019;49.382;11.358;2023-10-31T04:39:33;95144.50;;;9.02;100.00
68197;BME280;55019;49.382;11.358;2023-10-31T04:41:59;95146.34;;;8.87;100.00
68197;BME280;55019;49.382;11.358;2023-10-31T04:44:24;95147.69;;;8.83;100.00
68197;BME280;55019;49.382;11.358;2023-10-31T04:46:50;95156.25;;;8.90;100.00
68197;BME280;55019;49.382;11.358;2023-10-31T04:49:16;95143.97;;;8.86;100.00
68197;BME280;55019;49.382;11.358;2023-10-31T04:51:42;95146.31;;;8.81;100.00
68197;BME280;55019;49.382;11.358;2023-10-31T04:54:07;95148.03;;;8.74;100.00
68197;BME280;55019;49.382;11.358;2023-10-31T04:56:33;95141.00;;;8.61;100.00
68197;BME280;55019;49.382;11.358;2023-10-31T04:58:59;95152.31;;;8.67;100.00
68197;BME280;55019;49.382;11.358;2023-10-31T05:01:25;95155.22;;;8.57;100.00
68197;BME280;55019;49.382;11.358;2023-10-31T05:03:52;95145.28;;;8.55;100.00
68197;BME280;55019;49.382;11.358;2023-10-31T05:06:22;95147.66;;;8.56;100.00
68197;BME280;55019;49.382;11.358;2023-10-31T05:08:48;95157.19;;;8.56;100.00
68197;BME280;55019;49.382;11.358;2023-10-31T05:11:17;95151.97;;;8.49;100.00
68197;BME280;55019;49.382;11.358;2023-10-31T05:13:46;95150.56;;;8.47;100.00
68197;BME280;55019;49.382;11.358;2023-10-31T05:16:12;95161.72;;;8.54;100.00
68197;BME280;55019;49.382;11.358;2023-10-31T05:18:38;95157.84;;;8.43;100.00
68197;BME280;55019;49.382;11.358;2023-10-31T05:21:04;95162.88;;;8.51;100.00
68197;BME280;55019;49.382;11.358;2023-10-31T05:23:31;95165.03;;;8.48;100.00
68197;BME280;55019;49.382;11.358;2023-10-31T05:25:57;95175.81;;;8.57;100.00
68197;BME280;55019;49.382;11.358;2023-10-31T05:28:22;95182.25;;;8.47;100.00
68197;BME280;55019;49.382;11.358;2023-10-31T05:30:49;95194.97;;;8.55;100.00
68197;BME280;55019;49.382;11.358;2023-10-31T05:33:15;95190.69;;;8.62;100.00
68197;BME280;55019;49.382;11.358;2023-10-31T05:35:42;95200.91;;;8.70;100.00
68197;BME280;55019;49.382;11.358;2023-10-31T05:38:08;95201.31;;;8.53;100.00
68197;BME280;55019;49.382;11.358;2023-10-31T05:40:34;95193.50;;;8.46;100.00
68197;BME280;55019;49.382;11.358;2023-10-31T05:43:01;95198.66;;;8.46;100.00
68197;BME280;55019;49.382;11.358;2023-10-31T05:45:28;95185.19;;;8.44;100.00
68197;BME280;55019;49.382;11.358;2023-10-31T05:47:54;95187.06;;;8.36;100.00
68197;BME280;55019;49.382;11.358;2023-10-31T05:50:20;95194.31;;;8.47;100.00
68197;BME280;55019;49.382;11.358;2023-10-31T05:52:46;95194.53;;;8.31;100.00
68197;BME280;55019;49.382;11.358;2023-10-31T05:55:12;95183.25;;;8.32;100.00
68197;BME280;55019;49.382;11.358;2023-10-31T05:57:37;95188.97;;;8.27;100.00
68197;BME280;55019;49.382;11.358;2023-10-31T06:00:03;95196.06;;;8.25;100.00
68197;BME280;55019;49.382;11.358;2023-10-31T06:02:37;95208.13;;;8.25;100.00
68197;BME280;55019;49.382;11.358;2023-10-31T06:05:04;95210.72;;;8.25;100.00
68197;BME280;55019;49.382;11.358;2023-10-31T06:07:33;95212.91;;;8.28;100.00
68197;BME280;55019;49.382;11.358;2023-10-31T06:09:58;95223.03;;;8.29;100.00
68197;BME280;55019;49.382;11.358;2023-10-31T06:12:24;95222.94;;;8.23;100.00
68197;BME280;55019;49.382;11.358;2023-10-31T06:14:50;95228.47;;;8.20;100.00
68197;BME280;55019;49.382;11.358;2023-10-31T06:17:16;95226.16;;;8.25;100.00
68197;BME280;55019;49.382;11.358;2023-10-31T06:19:41;95231.75;;;8.28;100.00
68197;BME280;55019;49.382;11.358;2023-10-31T06:22:11;95235.34;;;8.34;100.00
68197;BME280;55019;49.382;11.358;2023-10-31T06:24:37;95246.38;;;8.28;100.00
68197;BME280;55019;49.382;11.358;2023-10-31T06:27:03;95252.75;;;8.32;100.00
68197;BME280;55019;49.382;11.358;2023-10-31T06:29:30;95272.97;;;8.35;100.00
68197;BME280;55019;49.382;11.358;2023-10-31T06:31:55;95273.69;;;8.29;100.00
68197;BME280;55019;49.382;11.358;2023-10-31T06:34:22;95283.63;;;8.32;100.00
68197;BME280;55019;49.382;11.358;2023-10-31T06:36:47;95287.44;;;8.36;100.00
68197;BME280;55019;49.382;11.358;2023-10-31T06:39:13;95289.03;;;8.37;100.00
68197;BME280;55019;49.382;11.358;2023-10-31T06:41:40;95299.06;;;8.32;100.00
68197;BME280;55019;49.382;11.358;2023-10-31T06:44:06;95300.28;;;8.36;100.00
68197;BME280;55019;49.382;11.358;2023-10-31T06:46:32;95299.06;;;8.32;100.00
68197;BME280;55019;49.382;11.358;2023-10-31T06:48:58;95307.22;;;8.50;100.00
68197;BME280;55019;49.382;11.358;2023-10-31T06:51:24;95312.72;;;8.47;100.00
68197;BME280;55019;49.382;11.358;2023-10-31T06:53:49;95319.09;;;8.51;100.00
68197;BME280;55019;49.382;11.358;2023-10-31T06:56:17;95327.25;;;8.40;100.00
68197;BME280;55019;49.382;11.358;2023-10-31T06:58:43;95330.13;;;8.45;100.00
68197;BME280;55019;49.382;11.358;2023-10-31T07:01:08;95339.44;;;8.46;100.00
68197;BME280;55019;49.382;11.358;2023-10-31T07:03:34;95345.22;;;8.48;100.00
68197;BME280;55019;49.382;11.358;2023-10-31T07:06:00;95350.94;;;8.64;100.00
68197;BME280;55019;49.382;11.358;2023-10-31T07:08:26;95358.09;;;8.48;100.00
68197;BME280;55019;49.382;11.358;2023-10-31T07:10:52;95365.81;;;8.48;100.00
68197;BME280;55019;49.382;11.358;2023-10-31T07:13:17;95367.75;;;8.46;100.00
68197;BME280;55019;49.382;11.358;2023-10-31T07:15:43;95360.00;;;8.60;100.00
68197;BME280;55019;49.382;11.358;2023-10-31T07:18:09;95368.91;;;8.57;100.00
68197;BME280;55019;49.382;11.358;2023-10-31T07:20:35;95364.41;;;8.66;100.00
68197;BME280;55019;49.382;11.358;2023-10-31T07:23:01;95364.41;;;8.66;100.00
68197;BME280;55019;49.382;11.358;2023-10-31T07:25:27;95369.66;;;8.72;100.00
68197;BME280;55019;49.382;11.358;2023-10-31T07:27:53;95380.94;;;8.71;100.00
68197;BME280;55019;49.382;11.358;2023-10-31T07:30:19;95376.25;;;8.60;100.00
68197;BME280;55019;49.382;11.358;2023-10-31T07:32:45;95376.97;;;8.55;100.00
68197;BME280;55019;49.382;11.358;2023-10-31T07:35:10;95373.84;;;8.59;100.00
68197;BME280;55019;49.382;11.358;2023-10-31T07:37:36;95377.22;;;8.59;100.00
68197;BME280;55019;49.382;11.358;2023-10-31T07:40:02;95366.31;;;8.57;100.00
68197;BME280;55019;49.382;11.358;2023-10-31T07:42:29;95361.53;;;8.55;100.00
68197;BME280;55019;49.382;11.358;2023-10-31T07:44:55;95368.19;;;8.49;100.00
68197;BME280;55019;49.382;11.358;2023-10-31T07:47:21;95368.19;;;8.49;100.00
68197;BME280;55019;49.382;11.358;2023-10-31T07:49:47;95362.06;;;8.50;100.00
68197;BME280;55019;49.382;11.358;2023-10-31T07:52:14;95375.91;;;8.63;100.00
68197;BME280;55019;49.382;11.358;2023-10-31T07:54:40;95375.09;;;8.63;100.00
68197;BME280;55019;49.382;11.358;2023-10-31T07:57:07;95365.84;;;8.68;100.00
68197;BME280;55019;49.382;11.358;2023-10-31T07:59:34;95373.72;;;8.81;100.00
68197;BME280;55019;49.382;11.358;2023-10-31T08:02:00;95380.47;;;8.82;100.00
68197;BME280;55019;49.382;11.358;2023-10-31T08:04:25;95384.28;;;8.86;100.00
68197;BME280;55019;49.382;11.358;2023-10-31T08:06:53;95377.13;;;8.82;100.00
68197;BME280;55019;49.382;11.358;2023-10-31T08:09:19;95376.50;;;8.80;100.00
68197;BME280;55019;49.382;11.358;2023-10-31T08:11:45;95372.84;;;8.74;100.00
68197;BME280;55019;49.382;11.358;2023-10-31T08:14:11;95383.97;;;8.75;100.00
68197;BME280;55019;49.382;11.358;2023-10-31T08:16:36;95389.19;;;8.81;100.00
68197;BME280;55019;49.382;11.358;2023-10-31T08:19:03;95391.13;;;8.79;100.00
68197;BME280;55019;49.382;11.358;2023-10-31T08:21:28;95384.75;;;8.75;100.00
68197;BME280;55019;49.382;11.358;2023-10-31T08:24:02;95399.66;;;8.94;100.00
68197;BME280;55019;49.382;11.358;2023-10-31T08:26:30;95397.59;;;9.04;100.00
68197;BME280;55019;49.382;11.358;2023-10-31T08:28:55;95402.03;;;8.96;100.00
68197;BME280;55019;49.382;11.358;2023-10-31T08:31:22;95403.25;;;9.00;100.00
68197;BME280;55019;49.382;11.358;2023-10-31T08:33:47;95397.34;;;9.20;100.00
68197;BME280;55019;49.382;11.358;2023-10-31T08:36:13;95404.63;;;9.17;100.00
68197;BME280;55019;49.382;11.358;2023-10-31T08:38:39;95410.44;;;9.19;100.00
68197;BME280;55019;49.382;11.358;2023-10-31T08:41:05;95401.22;;;9.31;100.00
68197;BME280;55019;49.382;11.358;2023-10-31T08:43:31;95390.59;;;9.19;100.00
68197;BME280;55019;49.382;11.358;2023-10-31T08:45:56;95400.53;;;9.43;100.00
68197;BME280;55019;49.382;11.358;2023-10-31T08:48:22;95396.75;;;9.39;100.00
68197;BME280;55019;49.382;11.358;2023-10-31T08:50:48;95399.59;;;9.44;100.00
68197;BME280;55019;49.382;11.358;2023-10-31T08:53:14;95399.63;;;9.30;100.00
68197;BME280;55019;49.382;11.358;2023-10-31T08:55:40;95413.63;;;9.42;100.00
68197;BME280;55019;49.382;11.358;2023-10-31T08:58:11;95395.03;;;9.46;100.00
68197;BME280;55019;49.382;11.358;2023-10-31T09:00:38;95410.28;;;9.90;100.00
68197;BME280;55019;49.382;11.358;2023-10-31T09:03:06;95394.38;;;10.07;100.00
68197;BME280;55019;49.382;11.358;2023-10-31T09:05:32;95401.00;;;10.16;100.00
68197;BME280;55019;49.382;11.358;2023-10-31T09:07:58;95393.00;;;10.45;100.00
68197;BME280;55019;49.382;11.358;2023-10-31T09:10:24;95396.94;;;10.34;100.00
68197;BME280;55019;49.382;11.358;2023-10-31T09:12:50;95393.44;;;10.48;100.00
68197;BME280;55019;49.382;11.358;2023-10-31T09:15:15;95390.03;;;10.82;100.00
68197;BME280;55019;49.382;11.358;2023-10-31T09:18:03;95386.88;;;11.72;100.00
68197;BME280;55019;49.382;11.358;2023-10-31T09:20:36;95394.22;;;12.46;100.00
68197;BME280;55019;49.382;11.358;2023-10-31T09:23:02;95387.47;;;13.08;100.00
68197;BME280;55019;49.382;11.358;2023-10-31T09:25:28;95392.91;;;13.38;100.00
68197;BME280;55019;49.382;11.358;2023-10-31T09:27:55;95391.53;;;13.66;100.00
68197;BME280;55019;49.382;11.358;2023-10-31T09:30:21;95404.38;;;12.41;100.00
68197;BME280;55019;49.382;11.358;2023-10-31T09:32:47;95403.56;;;11.50;100.00
68197;BME280;55019;49.382;11.358;2023-10-31T09:35:12;95404.88;;;11.20;100.00
68197;BME280;55019;49.382;11.358;2023-10-31T09:37:39;95405.97;;;10.92;100.00
68197;BME280;55019;49.382;11.358;2023-10-31T09:40:06;95397.06;;;10.54;100.00
68197;BME280;55019;49.382;11.358;2023-10-31T09:42:32;95408.19;;;10.20;100.00
68197;BME280;55019;49.382;11.358;2023-10-31T09:44:57;95429.63;;;10.00;100.00
68197;BME280;55019;49.382;11.358;2023-10-31T09:47:24;95424.38;;;9.66;100.00
68197;BME280;55019;49.382;11.358;2023-10-31T09:49:50;95435.19;;;9.55;100.00
68197;BME280;55019;49.382;11.358;2023-10-31T09:52:17;95441.78;;;9.43;100.00
68197;BME280;55019;49.382;11.358;2023-10-31T09:54:43;95450.22;;;9.16;100.00
68197;BME280;55019;49.382;11.358;2023-10-31T09:57:09;95452.41;;;9.34;100.00
68197;BME280;55019;49.382;11.358;2023-10-31T09:59:35;95454.88;;;9.42;100.00
68197;BME280;55019;49.382;11.358;2023-10-31T10:02:01;95464.28;;;9.70;100.00
68197;BME280;55019;49.382;11.358;2023-10-31T10:04:28;95464.66;;;9.46;100.00
68197;BME280;55019;49.382;11.358;2023-10-31T10:06:58;95473.88;;;9.55;100.00
68197;BME280;55019;49.382;11.358;2023-10-31T10:09:25;95468.97;;;9.25;100.00
68197;BME280;55019;49.382;11.358;2023-10-31T10:11:53;95481.63;;;9.41;100.00
68197;BME280;55019;49.382;11.358;2023-10-31T10:14:19;95483.19;;;9.56;100.00
68197;BME280;55019;49.382;11.358;2023-10-31T10:16:45;95466.31;;;9.75;100.00
68197;BME280;55019;49.382;11.358;2023-10-31T10:19:22;95475.09;;;9.80;100.00
68197;BME280;55019;49.382;11.358;2023-10-31T10:21:48;95500.88;;;9.80;100.00
68197;BME280;55019;49.382;11.358;2023-10-31T10:24:21;95495.34;;;9.62;100.00
68197;BME280;55019;49.382;11.358;2023-10-31T10:26:47;95504.31;;;9.87;100.00
68197;BME280;55019;49.382;11.358;2023-10-31T10:29:14;95504.69;;;9.63;100.00
68197;BME280;55019;49.382;11.358;2023-10-31T10:31:40;95512.31;;;9.71;100.00
68197;BME280;55019;49.382;11.358;2023-10-31T10:34:06;95523.47;;;9.57;100.00
68197;BME280;55019;49.382;11.358;2023-10-31T10:36:33;95520.91;;;9.57;100.00
68197;BME280;55019;49.382;11.358;2023-10-31T10:38:59;95520.59;;;9.67;100.00
68197;BME280;55019;49.382;11.358;2023-10-31T10:41:27;95502.19;;;9.91;100.00
68197;BME280;55019;49.382;11.358;2023-10-31T10:44:04;95505.31;;;9.86;100.00
68197;BME280;55019;49.382;11.358;2023-10-31T10:46:36;95502.72;;;9.65;100.00
68197;BME280;55019;49.382;11.358;2023-10-31T10:49:04;95485.75;;;9.71;100.00
68197;BME280;55019;49.382;11.358;2023-10-31T10:54:26;95491.06;;;9.90;100.00
68197;BME280;55019;49.382;11.358;2023-10-31T10:59:50;95486.03;;;10.24;100.00
68197;BME280;55019;49.382;11.358;2023-10-31T11:02:18;95499.31;;;10.21;100.00
68197;BME280;55019;49.382;11.358;2023-10-31T11:04:44;95497.41;;;10.29;100.00
68197;BME280;55019;49.382;11.358;2023-10-31T11:07:11;95502.25;;;10.18;100.00
68197;BME280;55019;49.382;11.358;2023-10-31T11:09:37;95512.31;;;9.92;100.00
68197;BME280;55019;49.382;11.358;2023-10-31T11:12:04;95507.06;;;10.00;100.00
68197;BME280;55019;49.382;11.358;2023-10-31T11:14:32;95514.03;;;9.85;100.00
68197;BME280;55019;49.382;11.358;2023-10-31T11:17:01;95507.94;;;10.07;100.00
68197;BME280;55019;49.382;11.358;2023-10-31T11:19:30;95519.13;;;9.99;100.00
68197;BME280;55019;49.382;11.358;2023-10-31T11:22:01;95516.75;;;9.98;100.00
68197;BME280;55019;49.382;11.358;2023-10-31T11:24:31;95505.91;;;9.88;100.00
68197;BME280;55019;49.382;11.358;2023-10-31T11:27:00;95508.72;;;10.07;100.00
68197;BME280;55019;49.382;11.358;2023-10-31T11:29:27;95502.03;;;10.13;100.00
68197;BME280;55019;49.382;11.358;2023-10-31T11:31:55;95496.88;;;10.13;100.00
68197;BME280;55019;49.382;11.358;2023-10-31T11:34:30;95488.81;;;10.50;100.00
68197;BME280;55019;49.382;11.358;2023-10-31T11:37:32;95499.31;;;11.10;100.00
68197;BME280;55019;49.382;11.358;2023-10-31T11:40:20;95499.53;;;11.15;100.00
68197;BME280;55019;49.382;11.358;2023-10-31T11:42:47;95495.69;;;10.98;100.00
68197;BME280;55019;49.382;11.358;2023-10-31T11:47:51;95483.91;;;10.34;100.00
68197;BME280;55019;49.382;11.358;2023-10-31T11:50:17;95497.81;;;10.33;100.00
68197;BME280;55019;49.382;11.358;2023-10-31T11:52:43;95506.38;;;10.61;100.00
68197;BME280;55019;49.382;11.358;2023-10-31T11:55:10;95502.19;;;10.60;100.00
68197;BME280;55019;49.382;11.358;2023-10-31T11:57:37;95512.44;;;10.81;100.00
68197;BME280;55019;49.382;11.358;2023-10-31T12:00:03;95508.47;;;10.78;100.00
68197;BME280;55019;49.382;11.358;2023-10-31T12:02:38;95519.31;;;10.67;100.00
68197;BME280;55019;49.382;11.358;2023-10-31T12:05:12;95518.69;;;10.38;100.00
68197;BME280;55019;49.382;11.358;2023-10-31T12:07:45;95520.94;;;10.20;100.00
68197;BME280;55019;49.382;11.358;2023-10-31T12:10:12;95522.53;;;10.00;100.00
68197;BME280;55019;49.382;11.358;2023-10-31T12:12:38;95530.91;;;10.02;100.00
68197;BME280;55019;49.382;11.358;2023-10-31T12:15:06;95539.66;;;10.01;100.00
68197;BME280;55019;49.382;11.358;2023-10-31T12:17:32;95547.25;;;10.09;100.00
68197;BME280;55019;49.382;11.358;2023-10-31T12:20:02;95545.88;;;10.34;100.00
68197;BME280;55019;49.382;11.358;2023-10-31T12:22:28;95545.25;;;10.53;100.00
68197;BME280;55019;49.382;11.358;2023-10-31T12:25:03;95529.53;;;10.27;100.00
68197;BME280;55019;49.382;11.358;2023-10-31T12:27:47;95543.16;;;10.42;100.00
68197;BME280;55019;49.382;11.358;2023-10-31T12:30:20;95534.31;;;10.51;100.00
68197;BME280;55019;49.382;11.358;2023-10-31T12:32:55;95523.91;;;10.17;100.00
68197;BME280;55019;49.382;11.358;2023-10-31T12:35:23;95516.53;;;10.14;100.00
68197;BME280;55019;49.382;11.358;2023-10-31T12:37:50;95525.06;;;10.14;100.00
68197;BME280;55019;49.382;11.358;2023-10-31T12:40:17;95516.16;;;10.17;100.00
68197;BME280;55019;49.382;11.358;2023-10-31T12:42:44;95508.22;;;10.18;100.00
68197;BME280;55019;49.382;11.358;2023-10-31T12:45:11;95512.03;;;10.22;100.00
68197;BME280;55019;49.382;11.358;2023-10-31T12:47:37;95517.03;;;10.03;100.00
68197;BME280;55019;49.382;11.358;2023-10-31T12:50:07;95518.66;;;10.10;100.00
68197;BME280;55019;49.382;11.358;2023-10-31T12:52:51;95511.22;;;10.22;100.00